createdAt,value
2017-12-31T00:00:05.190Z,9.77
2017-12-31T00:02:33.516Z,12.33
2017-12-31T00:05:01.916Z,11.57
2017-12-31T00:07:30.228Z,10.13
2017-12-31T00:09:58.555Z,11.57
2017-12-31T00:12:26.894Z,8.63
2017-12-31T00:14:56.036Z,9.57
2017-12-31T00:17:24.406Z,11.77
2017-12-31T00:19:52.718Z,10.30
2017-12-31T00:22:21.032Z,9.50
2017-12-31T00:24:49.346Z,11.13
2017-12-31T00:27:17.655Z,11.60
2017-12-31T00:29:45.974Z,10.83
2017-12-31T00:32:14.281Z,11.40
2017-12-31T00:34:43.363Z,12.47
2017-12-31T00:37:12.454Z,11.90
2017-12-31T00:39:40.764Z,13.87
2017-12-31T00:42:09.081Z,11.03
2017-12-31T00:44:37.409Z,12.70
2017-12-31T00:47:06.490Z,11.70
2017-12-31T00:49:34.820Z,11.57
2017-12-31T00:52:03.738Z,13.60
2017-12-31T00:54:32.036Z,10.33
2017-12-31T00:57:00.375Z,12.07
2017-12-31T00:59:28.687Z,9.63
2017-12-31T01:01:56.986Z,11.83
2017-12-31T01:04:25.282Z,9.77
2017-12-31T01:06:53.604Z,11.03
2017-12-31T01:09:21.922Z,10.80
2017-12-31T01:11:50.249Z,9.13
2017-12-31T01:14:19.342Z,10.00
2017-12-31T01:16:48.408Z,7.30
2017-12-31T01:19:16.750Z,8.10
2017-12-31T01:21:45.078Z,8.47
2017-12-31T01:24:13.440Z,7.93
2017-12-31T01:26:41.752Z,7.53
2017-12-31T01:29:10.070Z,8.80
2017-12-31T01:31:38.422Z,8.60
2017-12-31T01:34:06.748Z,7.57
2017-12-31T01:36:35.060Z,7.20
2017-12-31T01:39:03.382Z,8.17
2017-12-31T01:41:32.476Z,8.90
2017-12-31T01:44:01.558Z,8.10
2017-12-31T01:46:29.875Z,9.03
2017-12-31T01:49:03.138Z,9.50
2017-12-31T01:51:31.453Z,10.10
2017-12-31T01:53:59.778Z,9.17
2017-12-31T01:56:28.086Z,9.10
2017-12-31T01:58:56.410Z,10.60
2017-12-31T02:01:24.736Z,9.50
2017-12-31T02:03:53.054Z,9.10
2017-12-31T02:06:22.139Z,10.90
2017-12-31T02:08:51.226Z,9.97
2017-12-31T02:11:19.583Z,10.07
2017-12-31T02:13:47.896Z,10.40
2017-12-31T02:16:16.250Z,10.10
2017-12-31T02:18:44.561Z,10.50
2017-12-31T02:21:12.924Z,10.57
2017-12-31T02:23:41.263Z,12.10
2017-12-31T02:26:09.562Z,9.73
2017-12-31T02:28:37.902Z,10.87
2017-12-31T02:31:06.968Z,12.07
2017-12-31T02:33:35.305Z,10.27
2017-12-31T02:36:03.614Z,11.13
2017-12-31T02:38:31.930Z,9.53
2017-12-31T02:41:01.022Z,10.60
2017-12-31T02:43:29.324Z,9.33
2017-12-31T02:45:58.397Z,9.30
2017-12-31T02:48:26.734Z,10.07
2017-12-31T02:50:55.048Z,8.60
2017-12-31T02:53:23.396Z,9.60
2017-12-31T02:55:51.728Z,8.40
2017-12-31T02:58:20.046Z,7.90
2017-12-31T03:00:49.116Z,8.57
2017-12-31T03:03:17.423Z,9.40
2017-12-31T03:05:46.513Z,8.23
2017-12-31T03:08:15.593Z,8.23
2017-12-31T03:10:43.925Z,7.67
2017-12-31T03:13:12.226Z,9.20
2017-12-31T03:15:40.536Z,6.87
2017-12-31T03:18:09.583Z,7.10
2017-12-31T03:20:37.896Z,6.97
2017-12-31T03:23:06.208Z,9.07
2017-12-31T03:25:34.510Z,6.87
2017-12-31T03:28:02.846Z,6.20
2017-12-31T03:30:31.192Z,7.03
2017-12-31T03:32:59.493Z,6.37
2017-12-31T03:35:27.797Z,6.00
2017-12-31T03:37:56.093Z,6.63
2017-12-31T03:40:24.416Z,7.10
2017-12-31T03:42:52.747Z,7.00
2017-12-31T03:45:21.093Z,7.90
2017-12-31T03:47:49.396Z,8.97
2017-12-31T03:50:18.428Z,9.20
2017-12-31T03:52:46.748Z,8.70
2017-12-31T03:55:15.074Z,9.37
2017-12-31T03:57:43.377Z,9.53
2017-12-31T04:00:12.446Z,10.03
2017-12-31T04:02:40.761Z,10.07
2017-12-31T04:05:09.825Z,8.80
2017-12-31T04:07:38.146Z,9.97
2017-12-31T04:10:07.220Z,9.40
2017-12-31T04:12:35.530Z,10.07
2017-12-31T04:15:04.598Z,11.70
2017-12-31T04:17:32.901Z,9.67
2017-12-31T04:20:01.966Z,9.60
2017-12-31T04:22:30.303Z,8.53
2017-12-31T04:24:58.599Z,9.77
2017-12-31T04:27:26.915Z,9.63
2017-12-31T04:29:55.259Z,8.33
2017-12-31T04:32:23.563Z,9.70
2017-12-31T04:34:51.883Z,7.53
2017-12-31T04:37:20.983Z,7.73
2017-12-31T04:39:50.079Z,6.33
2017-12-31T04:42:18.395Z,7.20
2017-12-31T04:44:46.709Z,6.27
2017-12-31T04:47:15.041Z,4.80
2017-12-31T04:49:44.128Z,6.70
2017-12-31T04:52:12.451Z,4.70
2017-12-31T04:54:40.777Z,3.73
2017-12-31T04:57:09.213Z,4.17
2017-12-31T04:59:37.550Z,3.00
2017-12-31T05:02:05.863Z,3.07
2017-12-31T05:04:34.177Z,3.33
2017-12-31T05:07:02.493Z,2.70
2017-12-31T05:09:30.813Z,3.80
2017-12-31T05:11:59.148Z,2.60
2017-12-31T05:14:27.453Z,2.97
2017-12-31T05:16:56.595Z,3.63
2017-12-31T05:19:24.893Z,3.30
2017-12-31T05:21:53.221Z,3.20
2017-12-31T05:24:22.293Z,3.30
2017-12-31T05:26:50.624Z,4.07
2017-12-31T05:29:19.107Z,3.60
2017-12-31T05:31:47.399Z,3.70
2017-12-31T05:34:15.827Z,4.47
2017-12-31T05:36:44.151Z,3.73
2017-12-31T05:39:12.454Z,4.20
2017-12-31T05:41:40.777Z,4.70
2017-12-31T05:44:09.869Z,6.17
2017-12-31T05:46:38.184Z,4.90
2017-12-31T05:49:07.262Z,4.80
2017-12-31T05:51:35.603Z,4.50
2017-12-31T05:54:03.948Z,5.37
2017-12-31T05:56:33.115Z,4.33
2017-12-31T05:59:01.417Z,5.53
2017-12-31T06:01:30.509Z,3.77
2017-12-31T06:03:59.645Z,4.27
2017-12-31T06:06:28.161Z,4.17
2017-12-31T06:08:56.456Z,4.00
2017-12-31T06:11:24.776Z,3.77
2017-12-31T06:13:53.839Z,4.33
2017-12-31T06:16:22.145Z,4.10
2017-12-31T06:18:51.214Z,3.97
2017-12-31T06:21:19.505Z,5.67
2017-12-31T06:23:47.812Z,3.77
2017-12-31T06:26:16.876Z,5.13
2017-12-31T06:28:45.182Z,3.30
2017-12-31T06:31:13.479Z,3.70
2017-12-31T06:33:42.565Z,3.00
2017-12-31T06:36:10.875Z,3.13
2017-12-31T06:38:39.202Z,3.93
2017-12-31T06:41:07.557Z,3.50
2017-12-31T06:43:35.876Z,3.20
2017-12-31T06:46:04.208Z,3.00
2017-12-31T06:48:32.503Z,3.00
2017-12-31T06:51:00.831Z,3.13
2017-12-31T06:53:29.122Z,3.60
2017-12-31T06:55:58.180Z,4.23
2017-12-31T06:58:26.480Z,3.63
2017-12-31T07:00:54.798Z,3.30
2017-12-31T07:03:24.742Z,3.70
2017-12-31T07:05:53.052Z,3.13
2017-12-31T07:08:21.360Z,4.23
2017-12-31T07:10:49.671Z,3.80
2017-12-31T07:13:18.003Z,3.27
2017-12-31T07:15:46.308Z,3.73
2017-12-31T07:18:15.386Z,4.40
2017-12-31T07:20:43.786Z,3.73
2017-12-31T07:23:12.878Z,3.77
2017-12-31T07:25:41.208Z,3.60
2017-12-31T07:28:09.512Z,4.17
2017-12-31T07:30:37.812Z,4.90
2017-12-31T07:33:06.130Z,5.30
2017-12-31T07:35:35.230Z,5.10
2017-12-31T07:38:04.326Z,6.60
2017-12-31T07:40:33.408Z,5.93
2017-12-31T07:43:01.740Z,6.40
2017-12-31T07:45:30.026Z,6.83
2017-12-31T07:47:58.351Z,7.20
2017-12-31T07:50:26.678Z,7.70
2017-12-31T07:52:55.010Z,7.77
2017-12-31T07:55:23.325Z,7.70
2017-12-31T07:57:51.632Z,8.07
2017-12-31T08:00:20.007Z,7.70
2017-12-31T08:02:48.340Z,7.67
2017-12-31T08:05:16.634Z,8.00
2017-12-31T08:07:44.937Z,7.50
2017-12-31T08:10:13.250Z,8.40
2017-12-31T08:12:41.556Z,10.00
2017-12-31T08:15:09.891Z,8.90
2017-12-31T08:17:38.210Z,9.00
2017-12-31T08:20:06.511Z,8.40
2017-12-31T08:22:34.830Z,10.00
2017-12-31T08:25:03.144Z,9.50
2017-12-31T08:27:31.475Z,10.13
2017-12-31T08:30:00.563Z,10.73
2017-12-31T08:32:28.916Z,9.77
2017-12-31T08:34:57.268Z,9.47
2017-12-31T08:37:25.578Z,10.87
2017-12-31T08:39:53.911Z,10.87
2017-12-31T08:42:23.004Z,10.70
2017-12-31T08:44:52.128Z,10.50
2017-12-31T08:47:21.276Z,11.70
2017-12-31T08:49:49.584Z,10.50
2017-12-31T08:52:18.664Z,10.47
2017-12-31T08:54:46.964Z,11.10
2017-12-31T08:57:16.187Z,9.57
2017-12-31T08:59:44.484Z,10.10
2017-12-31T09:02:12.810Z,9.03
2017-12-31T09:04:41.224Z,8.20
2017-12-31T09:07:09.528Z,8.67
2017-12-31T09:09:37.848Z,7.90
2017-12-31T09:12:06.162Z,7.87
2017-12-31T09:14:35.252Z,6.93
2017-12-31T09:17:04.342Z,7.40
2017-12-31T09:19:32.698Z,7.27
2017-12-31T09:22:01.083Z,7.20
2017-12-31T09:24:29.412Z,6.83
2017-12-31T09:26:58.486Z,6.13
2017-12-31T09:29:26.810Z,6.47
2017-12-31T09:31:55.118Z,5.70
2017-12-31T09:34:23.437Z,5.20
2017-12-31T09:36:51.805Z,4.33
2017-12-31T09:39:20.126Z,4.57
2017-12-31T09:41:48.440Z,4.43
2017-12-31T09:44:16.768Z,4.80
2017-12-31T09:46:45.078Z,4.67
2017-12-31T09:49:13.384Z,4.53
2017-12-31T09:51:41.705Z,3.57
2017-12-31T09:56:29.063Z,3.60
2017-12-31T09:58:58.139Z,4.20
2017-12-31T10:01:26.492Z,3.93
2017-12-31T10:03:55.008Z,3.40
2017-12-31T10:06:23.305Z,3.47
2017-12-31T10:08:51.606Z,4.27
2017-12-31T10:11:20.694Z,4.10
2017-12-31T10:13:49.003Z,3.27
2017-12-31T10:16:17.456Z,4.43
2017-12-31T10:18:45.763Z,3.60
2017-12-31T10:21:14.088Z,3.87
2017-12-31T10:23:42.398Z,4.50
2017-12-31T10:26:10.724Z,4.30
2017-12-31T10:28:39.107Z,3.37
2017-12-31T10:31:07.422Z,3.77
2017-12-31T10:33:35.755Z,3.47
2017-12-31T10:36:04.098Z,3.60
2017-12-31T10:38:32.429Z,3.50
2017-12-31T10:41:00.943Z,2.87
2017-12-31T10:43:29.267Z,3.37
2017-12-31T10:45:57.573Z,3.40
2017-12-31T10:48:25.886Z,3.93
2017-12-31T10:50:54.227Z,3.17
2017-12-31T10:53:23.306Z,3.43
2017-12-31T10:55:51.597Z,3.17
2017-12-31T10:58:20.687Z,3.90
2017-12-31T11:00:49.049Z,3.63
2017-12-31T11:03:17.339Z,3.90
2017-12-31T11:05:45.654Z,3.50
2017-12-31T11:08:14.737Z,3.17
2017-12-31T11:10:43.837Z,3.67
2017-12-31T11:13:12.906Z,3.73
2017-12-31T11:15:41.217Z,3.60
2017-12-31T11:18:10.384Z,3.73
2017-12-31T11:20:38.713Z,3.00
2017-12-31T11:23:07.812Z,4.03
2017-12-31T11:25:36.898Z,3.03
2017-12-31T11:28:05.224Z,3.30
2017-12-31T11:30:33.541Z,3.30
2017-12-31T11:33:01.830Z,3.70
2017-12-31T11:35:30.125Z,4.37
2017-12-31T11:37:59.254Z,2.90
2017-12-31T11:40:27.596Z,3.60
2017-12-31T11:42:55.902Z,4.87
2017-12-31T11:45:24.243Z,6.43
2017-12-31T11:47:52.560Z,4.27
2017-12-31T11:50:20.908Z,4.17
2017-12-31T11:52:49.221Z,4.53
2017-12-31T11:55:18.290Z,3.70
2017-12-31T11:57:46.589Z,5.03
2017-12-31T12:00:14.911Z,4.70
2017-12-31T12:02:43.219Z,4.93
2017-12-31T12:05:11.541Z,4.83
2017-12-31T12:07:40.661Z,5.00
2017-12-31T12:10:08.965Z,4.47
2017-12-31T12:12:37.297Z,3.70
2017-12-31T12:15:05.615Z,4.30
2017-12-31T12:17:33.917Z,3.50
2017-12-31T12:20:02.223Z,3.87
2017-12-31T12:22:30.646Z,4.90
2017-12-31T12:24:59.739Z,4.47
2017-12-31T12:27:28.811Z,3.97
2017-12-31T12:29:57.117Z,4.10
2017-12-31T12:32:26.208Z,3.30
2017-12-31T12:34:54.559Z,3.90
2017-12-31T12:37:22.883Z,4.60
2017-12-31T12:39:51.951Z,4.73
2017-12-31T12:42:20.247Z,4.30
2017-12-31T12:44:49.067Z,3.90
2017-12-31T12:47:17.398Z,3.70
2017-12-31T12:49:46.173Z,3.30
2017-12-31T12:52:14.507Z,2.60
2017-12-31T12:54:43.593Z,2.70
2017-12-31T12:57:11.921Z,2.50
2017-12-31T12:59:40.333Z,3.10
2017-12-31T13:02:08.669Z,2.50
2017-12-31T13:04:37.027Z,3.07
2017-12-31T13:07:05.334Z,3.20
2017-12-31T13:09:34.209Z,2.93
2017-12-31T13:12:02.534Z,2.90
2017-12-31T13:14:30.850Z,2.40
2017-12-31T13:16:59.175Z,3.13
2017-12-31T13:19:27.485Z,4.30
2017-12-31T13:21:55.784Z,3.13
2017-12-31T13:24:24.087Z,3.40
2017-12-31T13:26:52.405Z,3.57
2017-12-31T13:29:20.733Z,3.63
2017-12-31T13:31:49.043Z,2.90
2017-12-31T13:34:17.345Z,3.90
2017-12-31T13:36:45.703Z,4.27
2017-12-31T13:39:14.018Z,3.10
2017-12-31T13:41:42.371Z,2.97
2017-12-31T13:44:10.695Z,3.00
2017-12-31T13:46:39.011Z,3.23
2017-12-31T13:49:07.336Z,4.43
2017-12-31T13:51:35.687Z,2.97
2017-12-31T13:54:04.009Z,2.93
2017-12-31T13:56:32.351Z,2.80
2017-12-31T13:59:00.658Z,2.70
2017-12-31T14:01:30.897Z,2.57
2017-12-31T14:03:59.260Z,3.87
2017-12-31T14:06:28.944Z,2.87
2017-12-31T14:08:57.243Z,2.80
2017-12-31T14:11:25.555Z,2.50
2017-12-31T14:13:53.869Z,2.87
2017-12-31T14:16:22.247Z,2.90
2017-12-31T14:18:50.617Z,2.70
2017-12-31T14:21:18.963Z,3.50
2017-12-31T14:23:48.037Z,3.27
2017-12-31T14:26:16.351Z,3.87
2017-12-31T14:28:45.433Z,4.53
2017-12-31T14:31:14.509Z,3.03
2017-12-31T14:33:42.819Z,3.50
2017-12-31T14:36:11.139Z,3.47
2017-12-31T14:38:39.450Z,3.20
2017-12-31T14:41:07.777Z,3.47
2017-12-31T14:43:36.871Z,3.30
2017-12-31T14:46:05.926Z,5.03
2017-12-31T14:48:34.227Z,3.90
2017-12-31T14:51:02.547Z,2.73
2017-12-31T14:53:30.845Z,2.23
2017-12-31T14:55:59.193Z,2.60
2017-12-31T14:58:28.283Z,2.57
2017-12-31T15:00:56.617Z,3.20
2017-12-31T15:03:24.913Z,3.87
2017-12-31T15:05:54.027Z,5.00
2017-12-31T15:08:22.357Z,3.50
2017-12-31T15:10:50.669Z,3.77
2017-12-31T15:13:18.976Z,3.77
2017-12-31T15:15:47.308Z,4.93
2017-12-31T15:18:15.747Z,4.03
2017-12-31T15:20:44.437Z,4.40
2017-12-31T15:23:12.743Z,4.70
2017-12-31T15:25:41.814Z,4.10
2017-12-31T15:28:10.375Z,5.00
2017-12-31T15:30:38.691Z,5.07
2017-12-31T15:33:07.035Z,4.40
2017-12-31T15:35:35.383Z,3.50
2017-12-31T15:38:04.449Z,3.93
2017-12-31T15:40:32.797Z,3.30
2017-12-31T15:43:01.139Z,3.50
2017-12-31T15:45:30.214Z,3.90
2017-12-31T15:47:58.631Z,3.20
2017-12-31T15:50:26.985Z,3.60
2017-12-31T15:52:55.304Z,3.30
2017-12-31T15:55:23.623Z,3.50
2017-12-31T15:57:51.950Z,5.07
2017-12-31T16:00:21.005Z,5.30
2017-12-31T16:02:49.299Z,5.63
2017-12-31T16:05:17.600Z,6.17
2017-12-31T16:07:45.906Z,5.40
2017-12-31T16:10:14.215Z,5.60
2017-12-31T16:12:42.541Z,5.10
2017-12-31T16:15:10.869Z,5.00
2017-12-31T16:17:39.157Z,4.37
2017-12-31T16:20:07.517Z,4.30
2017-12-31T16:22:35.829Z,3.40
2017-12-31T16:25:04.171Z,5.17
2017-12-31T16:27:33.281Z,6.03
2017-12-31T16:30:01.593Z,6.80
2017-12-31T16:32:29.911Z,5.37
2017-12-31T16:34:58.231Z,5.07
2017-12-31T16:37:26.570Z,6.47
2017-12-31T16:39:54.888Z,6.20
2017-12-31T16:42:23.222Z,10.53
2017-12-31T16:44:51.565Z,7.93
2017-12-31T16:47:19.917Z,6.70
2017-12-31T16:49:49.005Z,8.57
2017-12-31T16:52:18.152Z,8.47
2017-12-31T16:54:46.466Z,7.53
2017-12-31T16:57:14.812Z,5.87
2017-12-31T16:59:43.209Z,6.20
2017-12-31T17:02:11.516Z,6.07
2017-12-31T17:04:39.858Z,6.87
2017-12-31T17:07:08.206Z,6.80
2017-12-31T17:09:37.288Z,8.60
2017-12-31T17:12:05.702Z,7.60
2017-12-31T17:14:34.812Z,8.47
2017-12-31T17:17:03.124Z,9.60
2017-12-31T17:19:31.420Z,9.93
2017-12-31T17:21:59.745Z,12.40
2017-12-31T17:24:28.836Z,16.93
2017-12-31T17:26:57.893Z,22.30
2017-12-31T17:29:26.202Z,23.27
2017-12-31T17:31:54.543Z,20.60
2017-12-31T17:34:22.863Z,19.67
2017-12-31T17:36:51.190Z,14.80
2017-12-31T17:39:19.497Z,10.10
2017-12-31T17:41:47.818Z,12.83
2017-12-31T17:44:16.127Z,9.73
2017-12-31T17:46:44.444Z,13.73
2017-12-31T17:49:12.738Z,14.10
2017-12-31T17:51:41.054Z,14.40
2017-12-31T17:54:10.100Z,13.97
2017-12-31T17:56:38.402Z,13.50
2017-12-31T17:59:06.720Z,15.20
2017-12-31T18:01:35.036Z,15.07
2017-12-31T18:04:03.347Z,13.20
2017-12-31T18:06:31.680Z,14.43
2017-12-31T18:08:59.980Z,21.57
2017-12-31T18:11:28.298Z,21.00
2017-12-31T18:13:56.640Z,22.07
2017-12-31T18:16:25.042Z,24.07
2017-12-31T18:18:53.422Z,25.47
2017-12-31T18:21:21.747Z,28.43
2017-12-31T18:23:50.811Z,32.93
2017-12-31T18:26:19.158Z,41.17
2017-12-31T18:28:47.456Z,41.33
2017-12-31T18:31:15.753Z,41.50
2017-12-31T18:33:44.069Z,41.23
2017-12-31T18:36:12.388Z,39.90
2017-12-31T18:38:41.095Z,42.13
2017-12-31T18:41:09.454Z,38.30
2017-12-31T18:43:37.812Z,31.63
2017-12-31T18:46:06.925Z,31.70
2017-12-31T18:48:35.228Z,26.30
2017-12-31T18:51:03.521Z,26.40
2017-12-31T18:53:31.842Z,24.90
2017-12-31T18:56:00.147Z,23.23
2017-12-31T18:58:28.496Z,21.07
2017-12-31T19:00:56.829Z,20.80
2017-12-31T19:03:25.146Z,21.13
2017-12-31T19:05:53.453Z,18.87
2017-12-31T19:08:21.784Z,15.47
2017-12-31T19:10:50.094Z,14.80
2017-12-31T19:13:18.412Z,15.47
2017-12-31T19:15:47.980Z,16.53
2017-12-31T19:18:16.278Z,13.63
2017-12-31T19:20:44.604Z,18.03
2017-12-31T19:23:12.925Z,18.53
2017-12-31T19:25:41.268Z,19.73
2017-12-31T19:28:09.605Z,22.33
2017-12-31T19:30:37.959Z,20.23
2017-12-31T19:33:06.280Z,22.80
2017-12-31T19:35:35.366Z,22.70
2017-12-31T19:38:03.712Z,16.47
2017-12-31T19:40:32.010Z,16.97
2017-12-31T19:43:00.308Z,14.30
2017-12-31T19:45:28.616Z,25.67
2017-12-31T19:47:57.673Z,25.77
2017-12-31T19:50:25.997Z,24.70
2017-12-31T19:52:55.081Z,21.47
2017-12-31T19:55:23.415Z,14.30
2017-12-31T19:57:51.718Z,10.23
2017-12-31T20:00:20.802Z,16.20
2017-12-31T20:02:49.132Z,10.17
2017-12-31T20:05:18.216Z,8.70
2017-12-31T20:07:46.548Z,8.47
2017-12-31T20:10:14.880Z,8.10
2017-12-31T20:12:43.206Z,5.20
2017-12-31T20:15:11.522Z,6.60
2017-12-31T20:17:39.838Z,8.10
2017-12-31T20:20:08.129Z,13.57
2017-12-31T20:22:37.220Z,19.90
2017-12-31T20:25:05.526Z,15.27
2017-12-31T20:27:33.842Z,12.90
2017-12-31T20:30:02.148Z,10.57
2017-12-31T20:32:30.454Z,13.40
2017-12-31T20:34:58.748Z,12.40
2017-12-31T20:37:27.827Z,11.13
2017-12-31T20:39:56.171Z,12.17
2017-12-31T20:42:24.469Z,11.13
2017-12-31T20:44:52.769Z,14.00
2017-12-31T20:47:21.055Z,11.37
2017-12-31T20:49:50.141Z,17.80
2017-12-31T20:52:18.446Z,13.93
2017-12-31T20:54:47.587Z,9.77
2017-12-31T20:57:15.909Z,14.20
2017-12-31T20:59:44.209Z,17.40
2017-12-31T21:02:13.260Z,18.27
2017-12-31T21:04:41.581Z,16.00
2017-12-31T21:07:10.890Z,22.23
2017-12-31T21:09:39.990Z,23.73
2017-12-31T21:12:09.056Z,22.47
2017-12-31T21:14:38.161Z,19.90
2017-12-31T21:17:06.475Z,18.73
2017-12-31T21:19:35.583Z,18.73
2017-12-31T21:22:05.372Z,17.87
2017-12-31T21:24:33.675Z,18.07
2017-12-31T21:27:02.756Z,17.70
2017-12-31T21:29:31.071Z,17.13
2017-12-31T21:31:59.386Z,17.90
2017-12-31T21:34:27.731Z,17.57
2017-12-31T21:36:56.042Z,16.03
2017-12-31T21:39:24.412Z,15.33
2017-12-31T21:41:52.737Z,15.17
2017-12-31T21:44:21.034Z,13.73
2017-12-31T21:46:49.333Z,16.00
2017-12-31T21:49:17.639Z,16.93
2017-12-31T21:51:45.987Z,11.77
2017-12-31T21:54:14.331Z,13.00
2017-12-31T21:56:42.686Z,13.40
2017-12-31T21:59:11.017Z,12.67
2017-12-31T22:01:40.092Z,12.13
2017-12-31T22:04:08.391Z,34.63
2017-12-31T22:06:36.689Z,12.53
2017-12-31T22:09:04.986Z,10.60
2017-12-31T22:11:33.297Z,13.97
2017-12-31T22:14:01.663Z,11.20
2017-12-31T22:16:30.003Z,11.20
2017-12-31T22:18:58.310Z,9.30
2017-12-31T22:21:27.399Z,9.50
2017-12-31T22:23:56.537Z,10.47
2017-12-31T22:26:24.851Z,8.30
2017-12-31T22:28:53.161Z,7.30
2017-12-31T22:31:21.512Z,9.90
2017-12-31T22:33:49.866Z,20.80
2017-12-31T22:36:18.239Z,8.20
2017-12-31T22:38:46.533Z,7.63
2017-12-31T22:41:14.814Z,18.80
2017-12-31T22:43:43.125Z,10.63
2017-12-31T22:46:11.437Z,11.90
2017-12-31T22:48:40.511Z,12.55
2017-12-31T22:51:08.844Z,10.77
2017-12-31T22:53:37.201Z,12.20
2017-12-31T22:56:06.273Z,11.20
2017-12-31T22:58:34.601Z,9.77
2017-12-31T23:01:02.901Z,9.60
2017-12-31T23:03:31.229Z,13.90
2017-12-31T23:05:59.579Z,24.33
2017-12-31T23:08:27.895Z,55.30
2017-12-31T23:10:56.179Z,70.50
2017-12-31T23:13:24.605Z,89.37
2017-12-31T23:15:52.931Z,112.90
2017-12-31T23:18:21.247Z,75.30
2017-12-31T23:20:50.322Z,62.90
2017-12-31T23:23:18.639Z,84.00
2017-12-31T23:25:46.999Z,59.33
2017-12-31T23:28:16.078Z,74.70
2017-12-31T23:30:44.641Z,45.90
2017-12-31T23:33:12.960Z,60.40
2017-12-31T23:35:41.281Z,51.77
2017-12-31T23:38:09.579Z,58.37
2017-12-31T23:40:37.878Z,49.57
2017-12-31T23:43:06.228Z,42.27
2017-12-31T23:45:34.526Z,34.20
2017-12-31T23:48:02.839Z,40.20
2017-12-31T23:50:31.159Z,35.40
2017-12-31T23:52:59.627Z,35.40
2017-12-31T23:55:28.698Z,42.40
2017-12-31T23:57:57.034Z,37.80
